Time;durP1;ratioP1;P1;durP2;ratioP2;P2;SDS_P1;SDS_P2;PMS_P1;PMS_P2;Temp;Humidity;BMP_temperature;BMP_pressure;BME280_temperature;BME280_humidity;BME280_pressure;Samples;Min_cycle;Max_cycle;Signal;HPM_P1;HPM_P2
2023/05/13 00:02:09;;;;;;;22.30;11.80;;;;;;;8.45;63.53;101326.77;103694;277;38641;-72
2023/05/13 00:04:49;;;;;;;18.50;12.10;;;;;;;8.43;63.42;101327.65;103687;277;38293;-71
2023/05/13 00:07:27;;;;;;;20.00;12.50;;;;;;;8.38;63.50;101328.93;103895;277;38377;-70
2023/05/13 00:10:03;;;;;;;20.90;12.20;;;;;;;8.33;63.45;101333.16;103899;277;38253;-72
2023/05/13 00:12:47;;;;;;;24.70;12.10;;;;;;;8.29;63.38;101335.11;103896;277;39488;-73
2023/05/13 00:15:22;;;;;;;27.30;14.60;;;;;;;8.23;63.49;101331.19;103903;277;38416;-70
2023/05/13 00:17:56;;;;;;;17.50;13.00;;;;;;;8.20;63.69;101328.80;103838;277;39467;-70
2023/05/13 00:20:30;;;;;;;24.90;13.70;;;;;;;8.18;63.74;101326.39;103871;277;39153;-70
2023/05/13 00:23:06;;;;;;;23.80;14.60;;;;;;;8.17;63.75;101329.36;103919;277;38671;-70
2023/05/13 00:25:43;;;;;;;23.40;13.70;;;;;;;8.15;63.87;101327.30;103891;277;39875;-71
2023/05/13 00:28:20;;;;;;;21.80;13.40;;;;;;;8.11;63.94;101321.79;103793;277;39420;-69
2023/05/13 00:30:56;;;;;;;22.20;11.90;;;;;;;8.07;64.25;101320.63;103860;277;39482;-71
2023/05/13 00:33:30;;;;;;;22.50;12.00;;;;;;;8.02;64.37;101320.68;103863;277;38725;-70
2023/05/13 00:36:18;;;;;;;20.70;12.10;;;;;;;7.99;64.53;101326.63;103913;277;39946;-70
2023/05/13 00:38:52;;;;;;;16.70;12.40;;;;;;;7.96;64.54;101327.19;103922;277;38323;-70
2023/05/13 00:41:28;;;;;;;21.20;12.70;;;;;;;7.92;64.57;101327.23;103917;277;38276;-70
2023/05/13 00:44:02;;;;;;;20.40;13.20;;;;;;;7.89;64.85;101325.54;103925;277;38872;-70
2023/05/13 00:46:36;;;;;;;21.20;13.60;;;;;;;7.88;64.87;101334.23;103952;277;38652;-68
2023/05/13 00:49:13;;;;;;;24.00;13.60;;;;;;;7.84;64.93;101332.70;103971;277;38792;-71
2023/05/13 00:51:55;;;;;;;23.90;14.10;;;;;;;7.81;64.97;101331.53;103909;277;39801;-72
2023/05/13 00:54:29;;;;;;;27.40;13.10;;;;;;;7.78;65.19;101335.21;103965;277;38342;-72
2023/05/13 00:57:10;;;;;;;22.90;14.20;;;;;;;7.75;65.38;101336.27;103926;277;39975;-72
2023/05/13 00:59:44;;;;;;;24.00;15.50;;;;;;;7.74;65.23;101333.86;103982;277;38501;-69
2023/05/13 01:02:25;;;;;;;24.50;14.50;;;;;;;7.75;65.38;101334.54;103974;277;38374;-70
2023/05/13 01:05:06;;;;;;;20.90;14.20;;;;;;;7.69;65.75;101335.13;103977;277;38873;-69
2023/05/13 01:07:50;;;;;;;21.50;14.40;;;;;;;7.65;65.79;101342.81;103972;277;39553;-70
2023/05/13 01:10:30;;;;;;;23.60;13.70;;;;;;;7.60;65.91;101339.23;103981;277;39594;-70
2023/05/13 01:13:12;;;;;;;21.80;13.50;;;;;;;7.58;65.96;101344.28;103957;277;39418;-70
2023/05/13 01:15:51;;;;;;;26.00;14.10;;;;;;;7.58;66.28;101344.10;103682;279;39354;-70
2023/05/13 01:18:43;;;;;;;24.90;14.20;;;;;;;7.56;66.33;101344.64;103976;277;38549;-70
2023/05/13 01:21:28;;;;;;;20.60;13.70;;;;;;;7.54;66.29;101344.14;103950;277;38395;-70
2023/05/13 01:24:04;;;;;;;23.20;14.20;;;;;;;7.49;66.42;101346.10;103933;266;39683;-70
2023/05/13 01:26:41;;;;;;;23.10;14.90;;;;;;;7.44;66.39;101345.64;103957;277;38263;-69
2023/05/13 01:29:15;;;;;;;22.70;13.90;;;;;;;7.41;66.40;101341.14;103937;277;38393;-72
2023/05/13 01:31:50;;;;;;;20.40;12.90;;;;;;;7.37;66.48;101344.66;103960;277;38244;-72
2023/05/13 01:34:24;;;;;;;25.20;13.20;;;;;;;7.33;66.61;101342.09;103928;277;38243;-69
2023/05/13 01:37:04;;;;;;;21.50;13.50;;;;;;;7.29;66.77;101341.79;103930;277;38486;-71
2023/05/13 01:39:38;;;;;;;21.20;12.80;;;;;;;7.25;66.99;101340.26;103638;278;38794;-70
2023/05/13 01:42:15;;;;;;;24.40;14.30;;;;;;;7.24;67.01;101342.17;103805;278;38662;-70
2023/05/13 01:44:54;;;;;;;20.60;14.00;;;;;;;7.20;67.15;101340.81;103676;278;40169;-71
2023/05/13 01:47:33;;;;;;;21.20;13.30;;;;;;;7.17;67.30;101347.43;103686;278;39791;-73
2023/05/13 01:50:13;;;;;;;21.30;13.50;;;;;;;7.06;67.43;101342.66;103801;278;38262;-73
2023/05/13 01:52:52;;;;;;;18.70;12.40;;;;;;;6.95;67.69;101345.53;103692;278;172677;-70
2023/05/13 01:55:24;;;;;;;;;;;;;;;6.92;67.77;101345.72;103692;280;38230;-71
2023/05/13 01:58:03;;;;;;;21.70;13.10;;;;;;;6.86;68.09;101345.77;103761;278;39454;-72
2023/05/13 02:00:38;;;;;;;18.60;13.40;;;;;;;6.86;68.11;101349.41;103769;278;38912;-71
2023/05/13 02:03:13;;;;;;;23.70;14.90;;;;;;;6.85;68.22;101344.04;103807;278;39850;-73
2023/05/13 02:05:50;;;;;;;21.10;13.60;;;;;;;6.82;68.36;101345.44;103819;278;38252;-73
2023/05/13 02:08:26;;;;;;;22.40;14.00;;;;;;;6.77;68.51;101344.61;103864;278;39970;-73
2023/05/13 02:11:05;;;;;;;21.80;15.30;;;;;;;6.72;68.59;101351.58;103691;278;38590;-71
2023/05/13 02:13:39;;;;;;;20.20;13.50;;;;;;;6.67;68.70;101350.57;103803;278;39707;-69
2023/05/13 02:16:18;;;;;;;18.00;13.10;;;;;;;6.66;68.67;101352.30;103777;278;38245;-71
2023/05/13 02:18:52;;;;;;;19.80;12.70;;;;;;;6.63;68.66;101353.71;103814;278;38257;-70
2023/05/13 02:21:26;;;;;;;21.40;13.70;;;;;;;6.60;68.80;101352.70;103784;278;38730;-71
2023/05/13 02:24:02;;;;;;;21.00;14.10;;;;;;;6.59;68.89;101355.30;103710;278;175396;-70
2023/05/13 02:26:37;;;;;;;19.70;13.40;;;;;;;6.56;68.92;101360.70;103787;278;38616;-70
2023/05/13 02:29:11;;;;;;;21.90;13.90;;;;;;;6.50;69.03;101371.13;103800;278;38518;-70
2023/05/13 02:31:45;;;;;;;19.20;13.50;;;;;;;6.48;69.29;101364.55;103817;278;40390;-70
2023/05/13 02:34:20;;;;;;;18.60;12.70;;;;;;;6.48;69.56;101366.64;103823;278;38463;-71
2023/05/13 02:36:54;;;;;;;17.50;12.10;;;;;;;6.50;69.95;101370.61;103787;278;40921;-72
2023/05/13 02:39:29;;;;;;;19.40;12.70;;;;;;;6.51;70.12;101371.14;103858;278;39644;-68
2023/05/13 02:42:03;;;;;;;17.60;12.30;;;;;;;6.50;70.43;101374.42;103766;278;38831;-69
2023/05/13 02:44:41;;;;;;;20.80;13.20;;;;;;;6.50;70.57;101375.29;103666;278;175427;-70
2023/05/13 02:47:18;;;;;;;19.70;13.20;;;;;;;6.49;70.68;101372.02;103798;278;38224;-70
2023/05/13 02:49:54;;;;;;;20.50;12.80;;;;;;;6.51;70.86;101367.31;103822;278;38446;-70
2023/05/13 02:52:29;;;;;;;20.00;13.30;;;;;;;6.57;71.14;101365.20;103790;278;39020;-69
2023/05/13 02:55:04;;;;;;;18.10;12.50;;;;;;;6.62;71.46;101361.54;103787;278;38542;-68
2023/05/13 02:57:38;;;;;;;17.40;12.90;;;;;;;6.63;71.76;101362.21;103809;278;38285;-70
2023/05/13 03:00:16;;;;;;;23.60;13.80;;;;;;;6.67;71.84;101360.98;103784;278;39413;-71
2023/05/13 03:02:53;;;;;;;22.70;13.70;;;;;;;6.74;71.65;101366.65;103777;278;39328;-70
2023/05/13 03:05:27;;;;;;;18.40;13.60;;;;;;;6.81;71.98;101376.16;103793;266;39408;-71
2023/05/13 03:08:02;;;;;;;19.20;13.40;;;;;;;6.88;72.38;101378.36;103822;278;38493;-71
2023/05/13 03:10:50;;;;;;;17.70;12.90;;;;;;;6.95;72.62;101375.18;103761;278;39198;-71
2023/05/13 03:13:27;;;;;;;20.30;12.90;;;;;;;7.07;72.83;101370.42;103787;278;38242;-72
2023/05/13 03:16:04;;;;;;;18.70;14.00;;;;;;;7.20;72.90;101369.80;103801;278;38482;-71
2023/05/13 03:18:38;;;;;;;18.90;14.30;;;;;;;7.31;72.71;101365.19;103822;278;38745;-72
2023/05/13 03:21:12;;;;;;;23.10;14.00;;;;;;;7.40;72.72;101363.73;103747;278;175384;-73
2023/05/13 03:23:54;;;;;;;25.10;14.70;;;;;;;7.46;72.57;101366.09;103820;278;38449;-72
2023/05/13 03:26:29;;;;;;;28.60;15.10;;;;;;;7.53;72.30;101367.25;103820;278;38834;-71
2023/05/13 03:29:03;;;;;;;28.10;14.80;;;;;;;7.61;72.15;101374.29;103820;278;38278;-71
2023/05/13 03:31:37;;;;;;;21.20;14.30;;;;;;;7.72;72.12;101374.19;103805;278;38544;-70
2023/05/13 03:34:11;;;;;;;24.80;14.00;;;;;;;7.87;72.17;101363.42;103789;278;38699;-70
2023/05/13 03:36:46;;;;;;;21.90;15.00;;;;;;;8.03;71.89;101351.59;103770;278;38721;-69
2023/05/13 03:39:24;;;;;;;28.00;16.20;;;;;;;8.19;71.70;101348.98;104026;277;38566;-73
2023/05/13 03:42:01;;;;;;;22.70;16.00;;;;;;;8.31;71.35;101347.61;103997;276;38492;-72
2023/05/13 03:44:38;;;;;;;22.20;16.00;;;;;;;8.39;71.02;101364.57;104026;277;38456;-71
2023/05/13 03:47:12;;;;;;;23.90;16.90;;;;;;;8.47;70.64;101370.38;104004;277;39920;-71
2023/05/13 03:49:49;;;;;;;25.00;16.00;;;;;;;8.53;70.01;101364.73;104014;277;38503;-73
2023/05/13 03:52:25;;;;;;;23.00;14.80;;;;;;;8.57;69.93;101369.55;103584;277;436736;-71
2023/05/13 03:54:59;;;;;;;27.60;15.60;;;;;;;8.70;70.25;101366.06;103981;277;38561;-71
2023/05/13 03:57:35;;;;;;;26.20;15.90;;;;;;;9.13;74.04;101370.11;103996;277;39451;-71
2023/05/13 04:00:23;;;;;;;26.10;16.00;;;;;;;9.87;71.65;101367.40;104007;277;38753;-71
2023/05/13 04:02:59;;;;;;;25.10;15.50;;;;;;;9.92;69.21;101368.37;104029;276;38470;-71
2023/05/13 04:05:32;;;;;;;28.40;16.70;;;;;;;9.80;68.19;101369.98;104033;277;38223;-70
2023/05/13 04:08:07;;;;;;;22.30;15.60;;;;;;;9.70;68.13;101370.69;104058;277;40259;-71
2023/05/13 04:10:41;;;;;;;21.50;14.80;;;;;;;9.64;67.73;101369.23;104029;276;38319;-71
2023/05/13 04:13:16;;;;;;;25.00;15.70;;;;;;;9.54;67.51;101371.66;104050;277;39409;-73
2023/05/13 04:15:50;;;;;;;20.80;14.70;;;;;;;9.44;67.47;101371.34;104023;277;38981;-73
2023/05/13 04:18:25;;;;;;;21.30;14.40;;;;;;;9.34;67.78;101370.63;104028;277;38377;-69
2023/05/13 04:21:06;;;;;;;18.90;13.80;;;;;;;9.27;67.85;101374.22;104024;277;38820;-68
2023/05/13 04:23:42;;;;;;;24.50;15.70;;;;;;;9.21;68.26;101376.77;104008;277;38319;-71
2023/05/13 04:26:17;;;;;;;23.10;15.00;;;;;;;9.20;68.42;101383.23;103988;277;38457;-70
2023/05/13 04:28:51;;;;;;;26.70;16.10;;;;;;;9.19;68.69;101381.48;103846;277;39662;-71
2023/05/13 04:31:25;;;;;;;27.30;15.70;;;;;;;9.27;69.18;101384.33;103968;277;172533;-72
2023/05/13 04:34:00;;;;;;;28.70;17.20;;;;;;;9.41;69.24;101380.27;103814;278;39604;-70
2023/05/13 04:36:39;;;;;;;26.00;17.20;;;;;;;9.58;69.11;101384.52;104029;277;38435;-70
2023/05/13 04:39:19;;;;;;;29.80;18.20;;;;;;;9.76;68.87;101385.41;103866;277;38235;-71
2023/05/13 04:41:53;;;;;;;29.80;17.00;;;;;;;9.95;69.11;101390.09;104009;277;38351;-71
2023/05/13 04:44:31;;;;;;;58.50;19.90;;;;;;;10.20;68.81;101391.17;104027;277;38236;-73
2023/05/13 04:47:05;;;;;;;57.50;21.00;;;;;;;10.48;68.69;101390.45;104035;277;38810;-73
2023/05/13 04:49:42;;;;;;;60.20;20.60;;;;;;;10.83;68.59;101397.17;104022;277;38834;-72
2023/05/13 04:52:18;;;;;;;50.30;20.30;;;;;;;11.56;68.82;101388.45;103992;277;39395;-72
2023/05/13 04:54:52;;;;;;;56.40;23.10;;;;;;;12.81;69.02;101390.33;104058;277;38731;-72
2023/05/13 04:57:33;;;;;;;62.30;28.00;;;;;;;13.61;63.29;101392.84;104043;277;39714;-71
2023/05/13 05:00:15;;;;;;;54.70;22.60;;;;;;;13.69;61.09;101398.86;104064;277;39994;-70
2023/05/13 05:02:52;;;;;;;;;;;;;;;13.75;59.84;101399.36;104049;277;38638;-71
2023/05/13 05:05:26;;;;;;;42.90;20.60;;;;;;;13.83;59.12;101406.42;104042;277;38575;-74
2023/05/13 05:08:03;;;;;;;27.80;16.50;;;;;;;14.55;60.20;101414.73;104020;276;38425;-72
2023/05/13 05:10:38;;;;;;;28.70;14.90;;;;;;;15.32;56.71;101412.77;104058;277;38222;-74
2023/05/13 05:13:12;;;;;;;26.80;14.40;;;;;;;15.60;54.54;101409.66;104049;277;38398;-70
2023/05/13 05:15:49;;;;;;;25.70;14.60;;;;;;;15.78;52.47;101411.19;104010;277;39677;-71
2023/05/13 05:18:23;;;;;;;20.40;13.50;;;;;;;16.47;52.58;101406.19;104009;277;38673;-73
2023/05/13 05:20:59;;;;;;;22.50;13.10;;;;;;;17.63;50.46;101395.27;104025;277;38479;-72
2023/05/13 05:23:34;;;;;;;23.70;13.00;;;;;;;18.84;47.94;101388.13;104060;277;38626;-73
2023/05/13 05:26:11;;;;;;;29.50;14.00;;;;;;;19.97;44.90;101380.63;104016;277;39414;-73
2023/05/13 05:28:49;;;;;;;34.10;13.90;;;;;;;20.91;43.24;101380.69;104052;277;39001;-74
2023/05/13 05:31:25;;;;;;;49.70;14.10;;;;;;;21.93;40.54;101379.39;103442;277;893019;-74
2023/05/13 05:34:05;;;;;;;48.30;14.70;;;;;;;22.89;39.08;101377.67;103910;277;174258;-71
2023/05/13 05:36:39;;;;;;;38.00;14.30;;;;;;;23.98;36.89;101370.08;104021;277;38359;-71
2023/05/13 05:39:16;;;;;;;48.90;15.10;;;;;;;24.73;35.45;101370.01;104030;277;38255;-71
2023/05/13 05:41:50;;;;;;;55.20;14.90;;;;;;;25.46;33.56;101364.52;104036;277;40222;-73
2023/05/13 05:44:25;;;;;;;27.20;14.50;;;;;;;25.86;32.34;101368.40;104054;277;38801;-72
2023/05/13 05:47:02;;;;;;;35.00;15.00;;;;;;;26.38;30.82;101367.96;103884;277;174321;-71
2023/05/13 05:49:35;;;;;;;41.00;15.60;;;;;;;26.93;29.58;101369.27;104040;277;38998;-73
2023/05/13 05:52:12;;;;;;;46.00;15.20;;;;;;;27.47;28.28;101375.45;104052;277;38657;-71
2023/05/13 05:54:47;;;;;;;22.70;10.40;;;;;;;27.91;27.83;101378.79;104073;277;38438;-72
2023/05/13 05:57:23;;;;;;;18.10;10.60;;;;;;;28.23;27.43;101378.41;104044;277;38803;-72
2023/05/13 05:59:57;;;;;;;15.80;10.10;;;;;;;28.83;26.65;101385.45;103874;277;174192;-74
2023/05/13 06:02:32;;;;;;;17.60;10.20;;;;;;;29.25;25.55;101382.38;104028;277;38458;-72
2023/05/13 06:05:09;;;;;;;17.00;9.60;;;;;;;29.41;24.97;101380.73;103797;277;38421;-71
2023/05/13 06:07:46;;;;;;;15.70;9.10;;;;;;;29.51;24.60;101379.46;104002;277;39603;-71
2023/05/13 06:10:20;;;;;;;;;;;;;;;29.55;24.69;101379.07;104058;277;38975;-72
2023/05/13 06:12:54;;;;;;;12.40;8.70;;;;;;;29.79;24.45;101369.39;104029;277;38761;-73
2023/05/13 06:15:29;;;;;;;12.50;9.30;;;;;;;30.19;23.45;101365.30;104022;277;39578;-73
2023/05/13 06:18:04;;;;;;;13.90;8.60;;;;;;;30.58;23.03;101362.74;104016;277;38696;-72
2023/05/13 06:20:38;;;;;;;16.00;8.70;;;;;;;30.92;22.72;101364.55;104046;277;39190;-71
2023/05/13 06:23:15;;;;;;;34.60;13.10;;;;;;;31.20;21.91;101364.33;103817;277;38904;-75
2023/05/13 06:25:50;;;;;;;33.40;15.70;;;;;;;31.20;21.96;101365.18;104013;277;39027;-74
2023/05/13 06:28:28;;;;;;;23.20;12.80;;;;;;;31.40;21.91;101366.31;104024;277;38316;-73
2023/05/13 06:31:05;;;;;;;16.10;9.30;;;;;;;31.68;20.50;101366.79;104011;277;38218;-75
2023/05/13 06:33:41;;;;;;;24.60;10.40;;;;;;;31.80;19.15;101367.05;104005;277;38928;-71
2023/05/13 06:36:17;;;;;;;12.90;8.50;;;;;;;31.76;20.07;101366.20;104004;277;38297;-72
2023/05/13 06:38:52;;;;;;;19.00;9.80;;;;;;;32.18;19.50;101368.88;104046;277;38229;-71
2023/05/13 06:41:27;;;;;;;24.30;11.10;;;;;;;32.49;19.71;101372.68;103910;277;171251;-71
2023/05/13 06:44:05;;;;;;;30.80;12.40;;;;;;;32.71;19.76;101373.58;104077;277;38317;-73
2023/05/13 06:46:38;;;;;;;;;;;;;;;33.09;18.95;101376.66;104081;277;38848;-71
2023/05/13 06:49:16;;;;;;;26.50;13.00;;;;;;;32.84;19.03;101374.35;104021;277;39085;-73
2023/05/13 06:51:50;;;;;;;28.50;13.40;;;;;;;33.00;19.33;101372.73;104039;277;39661;-74
2023/05/13 06:54:38;;;;;;;19.40;12.60;;;;;;;33.11;18.83;101374.06;104018;277;38911;-75
2023/05/13 06:57:15;;;;;;;28.00;12.00;;;;;;;33.19;18.95;101370.88;104003;277;38863;-73
2023/05/13 06:59:53;;;;;;;14.00;8.90;;;;;;;33.27;18.36;101370.73;104027;277;38341;-75
2023/05/13 07:02:28;;;;;;;11.10;7.10;;;;;;;33.36;17.76;101370.91;104055;276;38232;-75
2023/05/13 07:05:08;;;;;;;16.40;8.00;;;;;;;33.62;17.28;101366.99;104013;277;39849;-74
2023/05/13 07:07:53;;;;;;;9.90;7.20;;;;;;;33.81;17.75;101362.71;104007;277;38567;-75
2023/05/13 07:10:29;;;;;;;8.50;6.80;;;;;;;34.02;17.25;101361.21;104048;277;38459;-74
2023/05/13 07:13:04;;;;;;;9.70;6.30;;;;;;;34.28;16.94;101363.15;104013;277;38289;-74
2023/05/13 07:15:39;;;;;;;15.10;6.60;;;;;;;34.44;16.46;101364.47;104052;277;39666;-73
2023/05/13 07:18:18;;;;;;;9.20;5.70;;;;;;;34.48;15.94;101357.05;104035;277;40107;-74
2023/05/13 07:20:56;;;;;;;7.90;5.80;;;;;;;34.66;16.04;101358.52;104016;277;38456;-74
2023/05/13 07:23:32;;;;;;;12.20;6.70;;;;;;;34.93;16.16;101360.44;104007;277;38294;-72
2023/05/13 07:26:06;;;;;;;9.80;5.90;;;;;;;34.95;15.57;101358.68;104053;277;38244;-71
2023/05/13 07:28:43;;;;;;;7.40;5.90;;;;;;;34.86;15.53;101359.80;104079;276;38242;-72
2023/05/13 07:31:20;;;;;;;10.40;5.40;;;;;;;34.91;15.44;101355.81;104034;277;38763;-71
2023/05/13 07:34:01;;;;;;;11.40;5.60;;;;;;;34.88;15.75;101357.25;103794;279;39611;-73
2023/05/13 07:36:37;;;;;;;6.60;4.60;;;;;;;35.12;15.27;101357.77;104032;277;38297;-74
2023/05/13 07:39:15;;;;;;;11.80;4.60;;;;;;;35.19;14.17;101356.73;103766;277;38242;-75
2023/05/13 07:41:53;;;;;;;8.20;5.10;;;;;;;35.25;14.40;101357.08;103941;277;38273;-74
2023/05/13 07:44:31;;;;;;;9.50;5.00;;;;;;;35.36;14.53;101355.08;103939;277;38389;-74
2023/05/13 07:47:08;;;;;;;11.60;5.10;;;;;;;35.34;14.31;101351.71;103895;277;39618;-74
2023/05/13 07:49:43;;;;;;;9.60;5.10;;;;;;;35.22;14.09;101354.91;103896;277;39707;-75
2023/05/13 07:52:18;;;;;;;8.60;5.40;;;;;;;35.21;14.76;101348.83;103896;277;38321;-73
2023/05/13 07:54:53;;;;;;;6.70;4.50;;;;;;;35.34;14.76;101346.13;103881;277;38236;-76
2023/05/13 07:57:30;;;;;;;6.40;4.10;;;;;;;35.43;13.75;101345.88;103906;277;39823;-77
2023/05/13 08:00:12;;;;;;;8.10;4.60;;;;;;;35.41;13.91;101347.17;103894;277;38529;-73
2023/05/13 08:02:51;;;;;;;8.30;4.60;;;;;;;35.36;13.67;101343.90;103901;277;38950;-74
2023/05/13 08:05:26;;;;;;;9.90;4.60;;;;;;;35.37;14.40;101347.13;103961;277;38246;-78
2023/05/13 08:08:05;;;;;;;7.00;4.20;;;;;;;35.59;14.03;101345.44;103943;277;38365;-74
2023/05/13 08:10:40;;;;;;;6.90;3.60;;;;;;;35.92;13.91;101339.77;103909;277;38323;-74
2023/05/13 08:13:14;;;;;;;10.50;4.40;;;;;;;36.05;13.84;101339.23;103892;277;38278;-77
2023/05/13 08:15:50;;;;;;;7.00;4.30;;;;;;;36.27;13.73;101341.96;103877;277;38617;-74
2023/05/13 08:18:27;;;;;;;14.10;4.80;;;;;;;36.33;14.64;101340.81;103909;277;38873;-74
2023/05/13 08:21:09;;;;;;;5.10;4.10;;;;;;;36.49;13.59;101340.55;103883;277;38231;-76
2023/05/13 08:23:43;;;;;;;3.60;3.20;;;;;;;36.56;13.21;101334.73;103909;277;38253;-75
2023/05/13 08:26:22;;;;;;;7.50;3.50;;;;;;;36.64;13.11;101334.68;103896;277;38245;-75
2023/05/13 08:28:56;;;;;;;5.50;3.20;;;;;;;36.65;13.50;101334.73;103966;277;38512;-72
2023/05/13 08:31:32;;;;;;;4.50;3.20;;;;;;;36.73;12.69;101338.15;103934;277;39795;-75
2023/05/13 08:34:11;;;;;;;6.00;3.20;;;;;;;36.65;12.18;101335.98;103894;277;38481;-74
2023/05/13 08:36:45;;;;;;;4.30;3.10;;;;;;;36.74;12.39;101339.52;103933;266;38205;-74
2023/05/13 08:39:24;;;;;;;6.00;3.10;;;;;;;37.09;12.42;101341.23;104042;277;38726;-75
2023/05/13 08:42:01;;;;;;;5.40;2.80;;;;;;;37.21;12.78;101331.69;104028;277;39397;-76
2023/05/13 08:44:36;;;;;;;9.70;3.20;;;;;;;37.41;12.49;101329.31;104065;277;38419;-76
2023/05/13 08:47:32;;;;;;;5.70;2.70;;;;;;;37.41;12.26;101328.21;103901;277;173792;-77
2023/05/13 08:50:08;;;;;;;5.90;3.40;;;;;;;37.46;12.20;101332.80;103899;277;38460;-74
2023/05/13 08:52:52;;;;;;;5.90;3.00;;;;;;;37.32;11.58;101333.80;104014;277;38246;-75
2023/05/13 08:55:41;;;;;;;3.30;2.80;;;;;;;37.39;11.95;101332.08;104059;276;38417;-73
2023/05/13 08:58:24;;;;;;;5.10;2.80;;;;;;;37.59;11.33;101323.95;103906;277;38319;-73
2023/05/13 09:00:59;;;;;;;3.20;2.80;;;;;;;37.64;11.94;101319.70;104084;277;38804;-73
2023/05/13 09:03:37;;;;;;;3.70;2.70;;;;;;;37.82;12.28;101318.52;104050;277;38947;-73
2023/05/13 09:06:16;;;;;;;5.10;2.60;;;;;;;37.88;11.22;101325.48;104001;277;39672;-74
2023/05/13 09:09:01;;;;;;;1.90;1.80;;;;;;;36.99;10.05;101320.45;104081;277;39647;-74
2023/05/13 09:11:49;;;;;;;5.60;2.20;;;;;;;35.99;10.70;101311.31;103856;277;40084;-73
2023/05/13 09:14:24;;;;;;;3.80;2.10;;;;;;;35.34;11.68;101311.80;104023;277;38612;-76
2023/05/13 09:16:59;;;;;;;2.40;2.20;;;;;;;34.30;11.66;101318.60;104044;277;39683;-76
2023/05/13 09:19:40;;;;;;;2.90;2.10;;;;;;;33.09;12.32;101317.29;104021;277;38364;-73
2023/05/13 09:22:25;;;;;;;4.80;2.00;;;;;;;32.36;13.37;101313.69;103964;276;38221;-73
2023/05/13 09:25:00;;;;;;;5.10;2.10;;;;;;;32.06;14.05;101309.17;103862;277;38217;-74
2023/05/13 09:27:43;;;;;;;4.60;2.50;;;;;;;31.92;13.96;101305.75;103786;277;40954;-74
2023/05/13 09:30:20;;;;;;;3.30;2.10;;;;;;;31.58;13.78;101311.36;104017;277;38333;-73
2023/05/13 09:33:08;;;;;;;;;;;;;;;30.72;13.82;101308.63;104047;277;39435;-72
2023/05/13 09:35:45;;;;;;;2.30;2.00;;;;;;;30.08;14.67;101300.33;103998;277;38807;-72
2023/05/13 09:38:20;;;;;;;5.70;2.00;;;;;;;29.77;15.16;101296.45;104031;277;38529;-74
2023/05/13 09:40:56;;;;;;;5.00;1.90;;;;;;;29.31;15.40;101295.98;104021;277;38242;-74
2023/05/13 09:43:31;;;;;;;4.00;2.00;;;;;;;28.84;15.90;101293.27;103868;277;38276;-72
2023/05/13 09:46:06;;;;;;;3.10;1.70;;;;;;;28.29;15.94;101297.06;104040;277;38416;-74
2023/05/13 09:48:40;;;;;;;4.90;1.90;;;;;;;27.93;16.39;101292.48;104047;277;38510;-74
2023/05/13 09:51:16;;;;;;;2.70;1.90;;;;;;;27.76;16.99;101289.33;104074;277;39461;-73
2023/05/13 09:53:59;;;;;;;2.10;1.80;;;;;;;27.79;17.24;101289.77;104069;277;38440;-72
2023/05/13 09:56:35;;;;;;;4.60;1.70;;;;;;;28.07;17.20;101281.62;104051;277;39762;-72
2023/05/13 09:59:15;;;;;;;1.80;1.60;;;;;;;28.53;17.41;101282.66;104103;277;38309;-73
2023/05/13 10:01:58;;;;;;;2.70;2.10;;;;;;;28.70;16.67;101276.34;104037;277;38261;-73
2023/05/13 10:04:34;;;;;;;3.20;2.00;;;;;;;28.32;16.57;101276.90;104057;277;38751;-74
2023/05/13 10:07:08;;;;;;;2.50;1.80;;;;;;;28.04;17.30;101276.02;103815;277;38383;-73
2023/05/13 10:09:43;;;;;;;4.80;2.20;;;;;;;28.21;17.28;101278.29;104036;277;38372;-75
2023/05/13 10:12:19;;;;;;;2.90;2.20;;;;;;;28.24;17.14;101266.89;103987;276;39648;-76
2023/05/13 10:14:57;;;;;;;2.60;1.80;;;;;;;28.39;17.33;101266.80;104033;277;38426;-73
2023/05/13 10:17:31;;;;;;;2.80;1.60;;;;;;;28.51;17.37;101263.46;104026;277;38706;-73
2023/05/13 10:20:07;;;;;;;2.10;1.70;;;;;;;28.31;17.16;101267.02;104006;277;39410;-74
2023/05/13 10:22:45;;;;;;;2.40;1.70;;;;;;;28.17;17.13;101269.35;103823;277;38202;-73
2023/05/13 10:25:20;;;;;;;3.80;1.80;;;;;;;27.63;17.04;101268.15;104037;277;38202;-73
2023/05/13 10:27:56;;;;;;;2.80;1.40;;;;;;;27.17;17.65;101264.40;104062;277;39489;-73
2023/05/13 10:30:31;;;;;;;3.40;1.80;;;;;;;27.02;18.10;101260.95;104019;276;38515;-74
2023/05/13 10:33:08;;;;;;;4.10;2.00;;;;;;;27.13;18.25;101260.85;103963;277;174392;-74
2023/05/13 10:35:43;;;;;;;2.90;2.10;;;;;;;26.88;17.84;101256.36;103991;277;38973;-74
2023/05/13 10:38:29;;;;;;;3.80;2.10;;;;;;;26.57;18.11;101258.54;104067;277;38393;-73
2023/05/13 10:41:22;;;;;;;2.50;1.90;;;;;;;26.23;18.35;101261.27;103788;279;38979;-73
2023/05/13 10:44:01;;;;;;;3.00;1.90;;;;;;;25.93;18.53;101259.99;104036;277;38406;-73
2023/05/13 10:46:41;;;;;;;4.00;2.00;;;;;;;25.63;18.78;101257.41;104021;277;38386;-74
2023/05/13 10:49:28;;;;;;;4.40;1.80;;;;;;;25.50;19.36;101257.98;103960;277;38854;-73
2023/05/13 10:52:14;;;;;;;3.30;2.10;;;;;;;25.26;19.10;101258.85;104033;277;39667;-73
2023/05/13 10:55:02;;;;;;;3.20;2.20;;;;;;;24.96;19.63;101255.79;104008;277;38529;-71
2023/05/13 10:57:43;;;;;;;5.00;2.40;;;;;;;24.82;20.01;101260.40;104014;277;39256;-72
2023/05/13 11:00:19;;;;;;;4.80;1.80;;;;;;;24.73;20.07;101259.02;103820;277;38752;-75
2023/05/13 11:02:59;;;;;;;4.30;2.10;;;;;;;24.74;20.16;101252.55;103809;279;39538;-73
2023/05/13 11:05:36;;;;;;;3.90;2.50;;;;;;;24.66;20.72;101251.05;104010;277;38790;-71
2023/05/13 11:08:16;;;;;;;3.40;2.00;;;;;;;24.58;20.56;101251.91;103835;277;38365;-72
2023/05/13 11:10:56;;;;;;;4.10;2.40;;;;;;;24.59;20.72;101251.30;103801;278;39808;-74
2023/05/13 11:13:41;;;;;;;2.50;1.80;;;;;;;24.64;20.76;101249.23;104040;277;39805;-75
2023/05/13 11:16:19;;;;;;;4.60;2.20;;;;;;;24.76;21.08;101251.33;103983;277;38767;-73
2023/05/13 11:18:55;;;;;;;4.10;1.90;;;;;;;24.75;20.89;101250.45;104045;277;38929;-71
2023/05/13 11:21:40;;;;;;;3.00;2.30;;;;;;;24.71;20.78;101251.71;104000;277;38801;-73
2023/05/13 11:24:20;;;;;;;4.40;2.80;;;;;;;24.59;20.73;101251.67;103827;277;38236;-73
2023/05/13 11:26:56;;;;;;;3.90;2.10;;;;;;;24.34;20.86;101254.35;104055;277;39417;-72
2023/05/13 11:29:34;;;;;;;2.80;1.90;;;;;;;24.12;21.21;101255.09;104033;277;39822;-70
2023/05/13 11:32:10;;;;;;;4.20;2.20;;;;;;;23.96;21.57;101259.05;104055;277;39793;-72
2023/05/13 11:34:55;;;;;;;3.10;2.00;;;;;;;23.84;21.65;101258.23;104024;277;38405;-71
2023/05/13 11:37:31;;;;;;;4.10;2.10;;;;;;;23.76;21.94;101260.31;104014;277;38276;-71
2023/05/13 11:40:09;;;;;;;2.00;1.90;;;;;;;23.76;22.08;101259.95;104033;277;38396;-72
2023/05/13 11:42:51;;;;;;;2.50;1.90;;;;;;;23.71;21.46;101260.02;103887;279;39473;-72
2023/05/13 11:45:26;;;;;;;3.40;1.90;;;;;;;23.69;22.04;101255.68;104012;277;38254;-72
2023/05/13 11:48:02;;;;;;;3.20;1.90;;;;;;;23.77;22.05;101255.95;104028;277;38444;-71
2023/05/13 11:50:36;;;;;;;3.90;1.80;;;;;;;23.89;21.78;101257.87;104051;276;38209;-72
2023/05/13 11:53:19;;;;;;;2.90;1.80;;;;;;;23.94;21.68;101244.94;103529;277;470324;-73
2023/05/13 11:55:57;;;;;;;4.30;2.30;;;;;;;24.12;21.67;101246.69;103966;277;39285;-71
2023/05/13 11:58:33;;;;;;;3.40;1.60;;;;;;;24.30;21.62;101245.26;104022;276;38513;-72
2023/05/13 12:01:20;;;;;;;3.60;1.70;;;;;;;24.33;21.04;101244.33;104020;277;38215;-73
2023/05/13 12:04:06;;;;;;;3.70;2.00;;;;;;;24.30;21.03;101248.33;103830;277;38703;-73
2023/05/13 12:06:50;;;;;;;4.90;2.40;;;;;;;24.18;20.67;101248.92;104015;276;38289;-73